Tuesday, April 24, 2018, 9:00 PM EDT
Back to Local

KCON, Concord, Concord Municipal Airport

Location: Concord, NH, United States Lat: 43.195
Local Time: 9:00 PM EDT ( 1:00 GMT) Lon: -71.501
Time Zone: US/Eastern Elev: 344 ft

Show me the last for .
Show Decoded

2018-04-24 19:51 METAR KCON 242351Z AUTO 19008KT 10SM CLR 17/M03 A3018 RMK AO2 SLP222 T01721028
                 10228 20172 56005 =
2018-04-24 18:51 METAR KCON 242251Z AUTO 22008KT 190V250 10SM CLR 19/M04 A3019 RMK AO2 SLP224
                 T01891044 =
2018-04-24 17:51 METAR KCON 242151Z AUTO 23010KT 10SM CLR 21/M06 A3019 RMK AO2 SLP226 T02061061 =
2018-04-24 16:51 METAR KCON 242051Z AUTO 21012KT 10SM CLR 22/M07 A3020 RMK AO2 SLP227 T02221067
                 56018 =
2018-04-24 15:51 METAR KCON 241951Z AUTO 23011G17KT 10SM CLR 22/M08 A3021 RMK AO2 SLP230
                 T02221083 =
2018-04-24 14:51 METAR KCON 241851Z AUTO 24008KT 10SM CLR 23/M06 A3022 RMK AO2 SLP235 T02281061 =
2018-04-24 13:51 METAR KCON 241751Z AUTO 21012G17KT 10SM CLR 22/M06 A3025 RMK AO2 SLP244
                 T02221056 10222 20067 56029 =
2018-04-24 12:51 METAR KCON 241651Z AUTO 17012G15KT 10SM CLR 21/M05 A3027 RMK AO2 SLP251
                 T02111050 =
2018-04-24 11:51 METAR KCON 241551Z AUTO 25009KT 10SM CLR 20/M04 A3031 RMK AO2 SLP266 T02001039 =
2018-04-24 10:51 METAR KCON 241451Z AUTO VRB05KT 10SM CLR 18/M03 A3034 RMK AO2 SLP273 T01781028
                 58017 =
2018-04-24 09:51 METAR KCON 241351Z AUTO 00000KT 10SM CLR 14/M03 A3037 RMK AO2 SLP285 T01391028 =
2018-04-24 08:51 METAR KCON 241251Z AUTO 00000KT 10SM CLR 10/M03 A3038 RMK AO2 SLP290 T01001028 =
2018-04-24 07:51 METAR KCON 241151Z AUTO 00000KT 10SM CLR 07/M02 A3039 RMK AO2 SLP291 T00671017
                 10067 21011 53006 =
2018-04-24 06:51 METAR KCON 241051Z AUTO 00000KT 10SM CLR 02/M02 A3038 RMK AO2 SLP288 T00171022 =
2018-04-24 05:51 METAR KCON 240951Z AUTO 00000KT 10SM CLR 01/M03 A3036 RMK AO2 SLP284 T00061033 =
2018-04-24 04:51 METAR KCON 240851Z AUTO 00000KT 10SM CLR 02/M04 A3037 RMK AO2 SLP285 T00221039
                 58005 =
2018-04-24 03:51 METAR KCON 240751Z AUTO 00000KT 10SM CLR 04/M04 A3038 RMK AO2 SLP289 T00441044 =
2018-04-24 02:51 METAR KCON 240651Z AUTO 15003KT 10SM CLR 04/M04 A3037 RMK AO2 SLP287 T00391039 =
2018-04-24 01:51 METAR KCON 240551Z AUTO 00000KT 10SM CLR 06/M04 A3038 RMK AO2 SLP289 T00611044
                 10150 20056 58001 =
2018-04-24 00:51 METAR KCON 240451Z AUTO 14004KT 10SM CLR 06/M03 A3039 RMK AO2 SLP292 T00561033
                 401941039 =
2018-04-23 23:51 METAR KCON 240351Z AUTO 16005KT 10SM CLR 08/M04 A3039 RMK AO2 SLP291 T00831044 =
2018-04-23 22:51 METAR KCON 240251Z AUTO 16006KT 10SM CLR 09/M05 A3038 RMK AO2 SLP290 T00941050
                 50008 =
2018-04-23 21:51 METAR KCON 240151Z AUTO 16006KT 10SM CLR 11/M07 A3040 RMK AO2 SLP295 T01061067 =

Support USWX by starting your Amazon purchase here.